sensor_id;sensor_type;location;lat;lon;timestamp;temperature;humidity
56729;DHT22;42612;52.232;7.560;2023-04-01T00:00:56;14.00;66.50
56729;DHT22;42612;52.232;7.560;2023-04-01T00:03:23;14.00;66.50
56729;DHT22;42612;52.232;7.560;2023-04-01T00:05:59;14.00;66.50
56729;DHT22;42612;52.232;7.560;2023-04-01T00:08:26;14.00;66.80
56729;DHT22;42612;52.232;7.560;2023-04-01T00:10:53;14.00;66.50
56729;DHT22;42612;52.232;7.560;2023-04-01T00:13:19;14.00;66.50
56729;DHT22;42612;52.232;7.560;2023-04-01T00:15:45;14.00;66.50
56729;DHT22;42612;52.232;7.560;2023-04-01T00:18:11;14.00;67.20
56729;DHT22;42612;52.232;7.560;2023-04-01T00:20:38;14.00;66.60
56729;DHT22;42612;52.232;7.560;2023-04-01T00:23:03;14.00;66.60
56729;DHT22;42612;52.232;7.560;2023-04-01T00:25:31;14.00;66.60
56729;DHT22;42612;52.232;7.560;2023-04-01T00:27:56;14.00;66.60
56729;DHT22;42612;52.232;7.560;2023-04-01T00:30:22;14.00;66.60
56729;DHT22;42612;52.232;7.560;2023-04-01T00:32:51;14.00;66.60
56729;DHT22;42612;52.232;7.560;2023-04-01T00:35:18;14.00;66.70
56729;DHT22;42612;52.232;7.560;2023-04-01T00:37:44;14.00;66.50
56729;DHT22;42612;52.232;7.560;2023-04-01T00:42:52;14.00;66.90
56729;DHT22;42612;52.232;7.560;2023-04-01T00:45:30;14.00;66.50
56729;DHT22;42612;52.232;7.560;2023-04-01T00:48:02;13.90;66.70
56729;DHT22;42612;52.232;7.560;2023-04-01T00:50:32;13.90;66.50
56729;DHT22;42612;52.232;7.560;2023-04-01T00:53:01;13.90;66.60
56729;DHT22;42612;52.232;7.560;2023-04-01T00:55:30;13.90;66.60
56729;DHT22;42612;52.232;7.560;2023-04-01T00:57:58;13.90;66.60
56729;DHT22;42612;52.232;7.560;2023-04-01T01:00:25;13.90;66.60
56729;DHT22;42612;52.232;7.560;2023-04-01T01:02:51;13.90;66.60
56729;DHT22;42612;52.232;7.560;2023-04-01T01:05:20;13.90;66.60
56729;DHT22;42612;52.232;7.560;2023-04-01T01:08:03;13.90;66.60
56729;DHT22;42612;52.232;7.560;2023-04-01T01:10:38;13.90;66.90
56729;DHT22;42612;52.232;7.560;2023-04-01T01:15:47;13.90;66.80
56729;DHT22;42612;52.232;7.560;2023-04-01T01:18:41;13.90;67.10
56729;DHT22;42612;52.232;7.560;2023-04-01T01:24:58;13.90;66.60
56729;DHT22;42612;52.232;7.560;2023-04-01T01:27:38;13.90;67.00
56729;DHT22;42612;52.232;7.560;2023-04-01T01:30:09;13.80;66.50
56729;DHT22;42612;52.232;7.560;2023-04-01T01:35:53;13.80;66.70
56729;DHT22;42612;52.232;7.560;2023-04-01T01:38:27;13.80;66.80
56729;DHT22;42612;52.232;7.560;2023-04-01T01:40:55;13.80;66.90
56729;DHT22;42612;52.232;7.560;2023-04-01T01:43:25;13.80;66.80
56729;DHT22;42612;52.232;7.560;2023-04-01T01:45:57;13.80;66.90
56729;DHT22;42612;52.232;7.560;2023-04-01T01:48:25;13.80;66.90
56729;DHT22;42612;52.232;7.560;2023-04-01T01:50:52;13.80;66.80
56729;DHT22;42612;52.232;7.560;2023-04-01T01:53:18;13.80;67.40
56729;DHT22;42612;52.232;7.560;2023-04-01T01:55:45;13.80;66.60
56729;DHT22;42612;52.232;7.560;2023-04-01T02:00:57;13.80;66.80
56729;DHT22;42612;52.232;7.560;2023-04-01T02:03:27;13.80;66.90
56729;DHT22;42612;52.232;7.560;2023-04-01T02:05:57;13.80;66.80
56729;DHT22;42612;52.232;7.560;2023-04-01T02:08:34;13.80;66.80
56729;DHT22;42612;52.232;7.560;2023-04-01T02:11:04;13.80;66.90
56729;DHT22;42612;52.232;7.560;2023-04-01T02:13:58;13.80;66.80
56729;DHT22;42612;52.232;7.560;2023-04-01T02:16:36;13.80;67.10
56729;DHT22;42612;52.232;7.560;2023-04-01T02:19:06;13.80;66.90
56729;DHT22;42612;52.232;7.560;2023-04-01T02:21:33;13.80;66.70
56729;DHT22;42612;52.232;7.560;2023-04-01T02:24:04;13.90;66.80
56729;DHT22;42612;52.232;7.560;2023-04-01T02:26:31;13.90;66.80
56729;DHT22;42612;52.232;7.560;2023-04-01T02:28:59;13.90;66.70
56729;DHT22;42612;52.232;7.560;2023-04-01T02:31:26;13.90;66.80
56729;DHT22;42612;52.232;7.560;2023-04-01T02:33:53;13.80;66.70
56729;DHT22;42612;52.232;7.560;2023-04-01T02:36:20;13.90;66.70
56729;DHT22;42612;52.232;7.560;2023-04-01T02:38:46;13.90;66.70
56729;DHT22;42612;52.232;7.560;2023-04-01T02:41:13;13.90;66.70
56729;DHT22;42612;52.232;7.560;2023-04-01T02:43:39;13.90;66.70
56729;DHT22;42612;52.232;7.560;2023-04-01T02:46:04;13.90;66.70
56729;DHT22;42612;52.232;7.560;2023-04-01T02:48:30;13.90;66.70
56729;DHT22;42612;52.232;7.560;2023-04-01T02:50:56;13.80;66.60
56729;DHT22;42612;52.232;7.560;2023-04-01T02:53:22;13.80;66.70
56729;DHT22;42612;52.232;7.560;2023-04-01T02:55:48;13.80;66.70
56729;DHT22;42612;52.232;7.560;2023-04-01T02:58:16;13.80;66.70
56729;DHT22;42612;52.232;7.560;2023-04-01T03:00:42;13.90;67.30
56729;DHT22;42612;52.232;7.560;2023-04-01T03:03:08;13.80;66.50
56729;DHT22;42612;52.232;7.560;2023-04-01T03:05:34;13.90;66.70
56729;DHT22;42612;52.232;7.560;2023-04-01T03:08:00;13.90;66.70
56729;DHT22;42612;52.232;7.560;2023-04-01T03:10:27;13.80;66.70
56729;DHT22;42612;52.232;7.560;2023-04-01T03:12:53;13.80;66.70
56729;DHT22;42612;52.232;7.560;2023-04-01T03:15:19;13.90;66.80
56729;DHT22;42612;52.232;7.560;2023-04-01T03:17:44;13.80;66.70
56729;DHT22;42612;52.232;7.560;2023-04-01T03:20:12;13.80;66.80
56729;DHT22;42612;52.232;7.560;2023-04-01T03:22:38;13.80;66.80
56729;DHT22;42612;52.232;7.560;2023-04-01T03:25:05;13.80;66.80
56729;DHT22;42612;52.232;7.560;2023-04-01T03:27:33;13.80;66.90
56729;DHT22;42612;52.232;7.560;2023-04-01T03:29:59;13.80;66.90
56729;DHT22;42612;52.232;7.560;2023-04-01T03:32:25;13.80;66.90
56729;DHT22;42612;52.232;7.560;2023-04-01T03:34:52;13.80;67.00
56729;DHT22;42612;52.232;7.560;2023-04-01T03:37:18;13.70;66.90
56729;DHT22;42612;52.232;7.560;2023-04-01T03:39:43;13.80;67.10
56729;DHT22;42612;52.232;7.560;2023-04-01T03:42:09;13.70;67.00
56729;DHT22;42612;52.232;7.560;2023-04-01T03:44:35;13.70;67.00
56729;DHT22;42612;52.232;7.560;2023-04-01T03:47:01;13.70;67.00
56729;DHT22;42612;52.232;7.560;2023-04-01T03:49:26;13.70;67.20
56729;DHT22;42612;52.232;7.560;2023-04-01T03:51:52;13.70;67.20
56729;DHT22;42612;52.232;7.560;2023-04-01T03:54:18;13.70;67.30
56729;DHT22;42612;52.232;7.560;2023-04-01T03:56:45;13.70;67.30
56729;DHT22;42612;52.232;7.560;2023-04-01T03:59:12;13.70;67.30
56729;DHT22;42612;52.232;7.560;2023-04-01T04:01:38;13.70;67.30
56729;DHT22;42612;52.232;7.560;2023-04-01T04:04:04;13.70;67.30
56729;DHT22;42612;52.232;7.560;2023-04-01T04:06:30;13.70;67.30
56729;DHT22;42612;52.232;7.560;2023-04-01T04:08:56;13.70;67.30
56729;DHT22;42612;52.232;7.560;2023-04-01T04:11:22;13.70;67.30
56729;DHT22;42612;52.232;7.560;2023-04-01T04:13:48;13.70;67.40
56729;DHT22;42612;52.232;7.560;2023-04-01T04:16:16;13.60;67.40
56729;DHT22;42612;52.232;7.560;2023-04-01T04:18:42;13.60;67.50
56729;DHT22;42612;52.232;7.560;2023-04-01T04:21:12;13.60;67.50
56729;DHT22;42612;52.232;7.560;2023-04-01T04:23:38;13.70;67.60
56729;DHT22;42612;52.232;7.560;2023-04-01T04:26:06;13.70;67.50
56729;DHT22;42612;52.232;7.560;2023-04-01T04:28:33;13.70;67.50
56729;DHT22;42612;52.232;7.560;2023-04-01T04:30:59;13.70;67.50
56729;DHT22;42612;52.232;7.560;2023-04-01T04:33:26;13.70;67.50
56729;DHT22;42612;52.232;7.560;2023-04-01T04:35:55;13.70;67.60
56729;DHT22;42612;52.232;7.560;2023-04-01T04:38:22;13.70;67.70
56729;DHT22;42612;52.232;7.560;2023-04-01T04:40:48;13.70;67.60
56729;DHT22;42612;52.232;7.560;2023-04-01T04:43:14;13.70;67.60
56729;DHT22;42612;52.232;7.560;2023-04-01T04:45:41;13.70;67.60
56729;DHT22;42612;52.232;7.560;2023-04-01T04:48:11;13.70;67.60
56729;DHT22;42612;52.232;7.560;2023-04-01T04:50:44;13.70;67.70
56729;DHT22;42612;52.232;7.560;2023-04-01T04:53:12;13.70;67.60
56729;DHT22;42612;52.232;7.560;2023-04-01T04:55:49;13.70;67.60
56729;DHT22;42612;52.232;7.560;2023-04-01T04:58:15;13.70;67.70
56729;DHT22;42612;52.232;7.560;2023-04-01T05:00:42;13.70;67.50
56729;DHT22;42612;52.232;7.560;2023-04-01T05:03:08;13.80;67.60
56729;DHT22;42612;52.232;7.560;2023-04-01T05:05:34;13.80;67.60
56729;DHT22;42612;52.232;7.560;2023-04-01T05:08:00;13.80;67.60
56729;DHT22;42612;52.232;7.560;2023-04-01T05:10:26;13.80;67.50
56729;DHT22;42612;52.232;7.560;2023-04-01T05:12:52;13.80;67.60
56729;DHT22;42612;52.232;7.560;2023-04-01T05:15:17;13.80;67.60
56729;DHT22;42612;52.232;7.560;2023-04-01T05:17:44;13.80;67.60
56729;DHT22;42612;52.232;7.560;2023-04-01T05:20:12;13.80;67.50
56729;DHT22;42612;52.232;7.560;2023-04-01T05:22:38;13.80;67.60
56729;DHT22;42612;52.232;7.560;2023-04-01T05:25:05;13.90;67.60
56729;DHT22;42612;52.232;7.560;2023-04-01T05:27:31;13.90;67.50
56729;DHT22;42612;52.232;7.560;2023-04-01T05:29:57;13.90;67.50
56729;DHT22;42612;52.232;7.560;2023-04-01T05:32:23;13.90;67.50
56729;DHT22;42612;52.232;7.560;2023-04-01T05:34:52;13.90;67.50
56729;DHT22;42612;52.232;7.560;2023-04-01T05:37:19;13.90;67.60
56729;DHT22;42612;52.232;7.560;2023-04-01T05:39:44;13.90;67.40
56729;DHT22;42612;52.232;7.560;2023-04-01T05:42:10;13.90;67.30
56729;DHT22;42612;52.232;7.560;2023-04-01T05:44:36;13.90;67.30
56729;DHT22;42612;52.232;7.560;2023-04-01T05:47:03;13.90;67.40
56729;DHT22;42612;52.232;7.560;2023-04-01T05:49:29;13.90;67.40
56729;DHT22;42612;52.232;7.560;2023-04-01T05:51:56;13.90;67.80
56729;DHT22;42612;52.232;7.560;2023-04-01T05:54:22;13.90;67.20
56729;DHT22;42612;52.232;7.560;2023-04-01T05:56:48;13.90;67.30
56729;DHT22;42612;52.232;7.560;2023-04-01T05:59:14;13.90;67.40
56729;DHT22;42612;52.232;7.560;2023-04-01T06:01:40;13.80;67.30
56729;DHT22;42612;52.232;7.560;2023-04-01T06:04:11;13.80;67.40
56729;DHT22;42612;52.232;7.560;2023-04-01T06:06:39;13.80;67.50
56729;DHT22;42612;52.232;7.560;2023-04-01T06:09:16;13.80;67.50
56729;DHT22;42612;52.232;7.560;2023-04-01T06:14:46;13.80;67.60
56729;DHT22;42612;52.232;7.560;2023-04-01T06:29:58;13.70;67.80
56729;DHT22;42612;52.232;7.560;2023-04-01T06:32:31;13.70;68.10
56729;DHT22;42612;52.232;7.560;2023-04-01T06:41:31;13.70;68.00
56729;DHT22;42612;52.232;7.560;2023-04-01T06:47:15;13.70;68.30
56729;DHT22;42612;52.232;7.560;2023-04-01T06:52:37;13.70;68.00
56729;DHT22;42612;52.232;7.560;2023-04-01T06:57:53;13.80;68.00
56729;DHT22;42612;52.232;7.560;2023-04-01T07:00:37;13.80;67.90
56729;DHT22;42612;52.232;7.560;2023-04-01T07:06:05;13.80;67.90
56729;DHT22;42612;52.232;7.560;2023-04-01T07:08:36;13.90;67.90
56729;DHT22;42612;52.232;7.560;2023-04-01T07:11:16;13.80;67.90
56729;DHT22;42612;52.232;7.560;2023-04-01T07:13:53;13.90;67.90
56729;DHT22;42612;52.232;7.560;2023-04-01T07:16:26;13.90;67.90
56729;DHT22;42612;52.232;7.560;2023-04-01T07:24:13;14.00;68.00
56729;DHT22;42612;52.232;7.560;2023-04-01T07:27:01;14.00;68.70
56729;DHT22;42612;52.232;7.560;2023-04-01T07:29:27;14.00;67.80
56729;DHT22;42612;52.232;7.560;2023-04-01T07:37:43;14.10;68.20
56729;DHT22;42612;52.232;7.560;2023-04-01T07:45:54;14.20;68.00
56729;DHT22;42612;52.232;7.560;2023-04-01T07:48:48;14.20;68.30
56729;DHT22;42612;52.232;7.560;2023-04-01T07:51:35;14.20;68.20
56729;DHT22;42612;52.232;7.560;2023-04-01T07:54:17;14.30;68.30
56729;DHT22;42612;52.232;7.560;2023-04-01T07:57:07;14.30;68.20
56729;DHT22;42612;52.232;7.560;2023-04-01T08:02:23;14.40;68.00
56729;DHT22;42612;52.232;7.560;2023-04-01T08:08:08;14.40;68.40
56729;DHT22;42612;52.232;7.560;2023-04-01T08:14:39;14.50;68.70
56729;DHT22;42612;52.232;7.560;2023-04-01T08:17:40;14.50;68.30
56729;DHT22;42612;52.232;7.560;2023-04-01T08:23:25;14.60;68.00
56729;DHT22;42612;52.232;7.560;2023-04-01T08:26:34;14.60;68.00
56729;DHT22;42612;52.232;7.560;2023-04-01T08:29:18;14.70;67.90
56729;DHT22;42612;52.232;7.560;2023-04-01T08:32:10;14.70;68.00
56729;DHT22;42612;52.232;7.560;2023-04-01T08:34:40;14.70;68.10
56729;DHT22;42612;52.232;7.560;2023-04-01T08:37:14;14.70;67.80
56729;DHT22;42612;52.232;7.560;2023-04-01T08:39:52;14.70;67.90
56729;DHT22;42612;52.232;7.560;2023-04-01T08:51:26;14.80;68.10
56729;DHT22;42612;52.232;7.560;2023-04-01T09:03:25;14.90;67.80
56729;DHT22;42612;52.232;7.560;2023-04-01T09:27:02;15.10;67.30
56729;DHT22;42612;52.232;7.560;2023-04-01T09:33:12;15.20;67.70
56729;DHT22;42612;52.232;7.560;2023-04-01T09:39:38;15.30;67.50
56729;DHT22;42612;52.232;7.560;2023-04-01T09:42:15;15.30;68.50
56729;DHT22;42612;52.232;7.560;2023-04-01T09:44:58;15.40;67.70
56729;DHT22;42612;52.232;7.560;2023-04-01T10:03:59;15.70;67.60
56729;DHT22;42612;52.232;7.560;2023-04-01T10:13:23;15.80;67.20
56729;DHT22;42612;52.232;7.560;2023-04-01T10:23:04;15.90;67.20
56729;DHT22;42612;52.232;7.560;2023-04-01T10:37:08;16.10;65.70
56729;DHT22;42612;52.232;7.560;2023-04-01T10:40:12;16.10;66.00
56729;DHT22;42612;52.232;7.560;2023-04-01T10:49:36;16.20;65.80
56729;DHT22;42612;52.232;7.560;2023-04-01T10:55:36;16.20;65.80
56729;DHT22;42612;52.232;7.560;2023-04-01T10:58:50;16.20;65.70
56729;DHT22;42612;52.232;7.560;2023-04-01T11:04:58;16.20;65.60
56729;DHT22;42612;52.232;7.560;2023-04-01T11:11:34;16.20;65.90
56729;DHT22;42612;52.232;7.560;2023-04-01T11:17:48;16.20;65.50
56729;DHT22;42612;52.232;7.560;2023-04-01T11:23:28;16.20;65.30
56729;DHT22;42612;52.232;7.560;2023-04-01T11:26:21;16.20;65.40
56729;DHT22;42612;52.232;7.560;2023-04-01T11:29:30;16.20;65.60
56729;DHT22;42612;52.232;7.560;2023-04-01T11:32:41;16.20;65.60
56729;DHT22;42612;52.232;7.560;2023-04-01T11:50:46;16.20;65.40
56729;DHT22;42612;52.232;7.560;2023-04-01T12:13:09;16.60;65.60
56729;DHT22;42612;52.232;7.560;2023-04-01T12:16:25;16.60;65.20
56729;DHT22;42612;52.232;7.560;2023-04-01T12:18:59;16.70;65.50
56729;DHT22;42612;52.232;7.560;2023-04-01T12:21:38;16.80;64.90
56729;DHT22;42612;52.232;7.560;2023-04-01T12:24:42;16.80;64.90
56729;DHT22;42612;52.232;7.560;2023-04-01T12:30:37;16.90;64.40
56729;DHT22;42612;52.232;7.560;2023-04-01T12:33:36;16.90;63.70
56729;DHT22;42612;52.232;7.560;2023-04-01T12:36:35;16.90;64.10
56729;DHT22;42612;52.232;7.560;2023-04-01T12:48:37;16.80;63.70
56729;DHT22;42612;52.232;7.560;2023-04-01T13:15:52;16.60;65.40
56729;DHT22;42612;52.232;7.560;2023-04-01T13:19:03;16.60;65.10
56729;DHT22;42612;52.232;7.560;2023-04-01T13:30:11;16.50;64.50
56729;DHT22;42612;52.232;7.560;2023-04-01T13:33:21;16.50;64.40
56729;DHT22;42612;52.232;7.560;2023-04-01T13:36:07;16.40;64.50
56729;DHT22;42612;52.232;7.560;2023-04-01T13:39:27;16.40;64.20
56729;DHT22;42612;52.232;7.560;2023-04-01T13:42:23;16.30;64.30
56729;DHT22;42612;52.232;7.560;2023-04-01T13:45:02;16.30;64.50
56729;DHT22;42612;52.232;7.560;2023-04-01T13:56:33;16.20;64.80
56729;DHT22;42612;52.232;7.560;2023-04-01T14:02:45;16.20;65.00
56729;DHT22;42612;52.232;7.560;2023-04-01T14:08:35;16.20;64.80
56729;DHT22;42612;52.232;7.560;2023-04-01T14:14:31;16.10;64.70
56729;DHT22;42612;52.232;7.560;2023-04-01T14:23:41;16.10;64.50
56729;DHT22;42612;52.232;7.560;2023-04-01T14:29:18;16.10;64.80
56729;DHT22;42612;52.232;7.560;2023-04-01T14:31:58;16.00;64.90
56729;DHT22;42612;52.232;7.560;2023-04-01T14:34:59;16.00;65.00
56729;DHT22;42612;52.232;7.560;2023-04-01T14:43:43;16.00;64.70
56729;DHT22;42612;52.232;7.560;2023-04-01T14:49:41;16.10;64.90
56729;DHT22;42612;52.232;7.560;2023-04-01T14:52:16;16.10;64.90
56729;DHT22;42612;52.232;7.560;2023-04-01T14:54:54;16.10;65.00
56729;DHT22;42612;52.232;7.560;2023-04-01T14:57:30;16.10;64.80
56729;DHT22;42612;52.232;7.560;2023-04-01T15:02:48;16.10;64.80
56729;DHT22;42612;52.232;7.560;2023-04-01T15:05:55;16.10;64.90
56729;DHT22;42612;52.232;7.560;2023-04-01T15:08:32;16.00;64.70
56729;DHT22;42612;52.232;7.560;2023-04-01T15:19:24;16.00;64.80
56729;DHT22;42612;52.232;7.560;2023-04-01T15:22:19;15.90;64.60
56729;DHT22;42612;52.232;7.560;2023-04-01T15:36:37;15.80;64.60
56729;DHT22;42612;52.232;7.560;2023-04-01T15:44:53;15.80;64.60
56729;DHT22;42612;52.232;7.560;2023-04-01T15:47:36;15.80;64.40
56729;DHT22;42612;52.232;7.560;2023-04-01T15:50:21;15.70;64.80
56729;DHT22;42612;52.232;7.560;2023-04-01T15:53:07;15.70;64.70
56729;DHT22;42612;52.232;7.560;2023-04-01T16:01:38;15.70;64.70
56729;DHT22;42612;52.232;7.560;2023-04-01T16:04:55;15.70;64.70
56729;DHT22;42612;52.232;7.560;2023-04-01T16:11:05;15.60;64.60
56729;DHT22;42612;52.232;7.560;2023-04-01T16:19:51;15.50;64.30
56729;DHT22;42612;52.232;7.560;2023-04-01T16:22:33;15.40;64.20
56729;DHT22;42612;52.232;7.560;2023-04-01T16:25:29;15.40;64.30
56729;DHT22;42612;52.232;7.560;2023-04-01T16:31:54;15.20;64.20
56729;DHT22;42612;52.232;7.560;2023-04-01T16:37:17;15.20;64.30
56729;DHT22;42612;52.232;7.560;2023-04-01T16:40:16;15.10;64.40
56729;DHT22;42612;52.232;7.560;2023-04-01T16:51:46;15.00;64.20
56729;DHT22;42612;52.232;7.560;2023-04-01T17:00:10;14.90;64.20
56729;DHT22;42612;52.232;7.560;2023-04-01T17:05:52;14.80;64.10
56729;DHT22;42612;52.232;7.560;2023-04-01T17:08:59;14.80;64.10
56729;DHT22;42612;52.232;7.560;2023-04-01T17:15:05;14.70;64.20
56729;DHT22;42612;52.232;7.560;2023-04-01T17:20:48;14.70;64.00
56729;DHT22;42612;52.232;7.560;2023-04-01T17:28:52;14.60;64.10
56729;DHT22;42612;52.232;7.560;2023-04-01T17:40:49;14.40;64.10
56729;DHT22;42612;52.232;7.560;2023-04-01T17:49:36;14.30;64.00
56729;DHT22;42612;52.232;7.560;2023-04-01T17:52:21;14.30;63.90
56729;DHT22;42612;52.232;7.560;2023-04-01T18:10:35;14.20;63.90
56729;DHT22;42612;52.232;7.560;2023-04-01T18:13:27;14.10;64.00
56729;DHT22;42612;52.232;7.560;2023-04-01T18:22:19;14.10;63.90
56729;DHT22;42612;52.232;7.560;2023-04-01T18:31:09;14.00;63.70
56729;DHT22;42612;52.232;7.560;2023-04-01T18:42:24;13.90;63.80
56729;DHT22;42612;52.232;7.560;2023-04-01T18:48:30;13.80;63.60
56729;DHT22;42612;52.232;7.560;2023-04-01T18:51:02;13.70;63.80
56729;DHT22;42612;52.232;7.560;2023-04-01T18:54:08;13.60;63.80
56729;DHT22;42612;52.232;7.560;2023-04-01T18:56:41;13.60;63.90
56729;DHT22;42612;52.232;7.560;2023-04-01T19:02:45;13.50;63.90
56729;DHT22;42612;52.232;7.560;2023-04-01T19:05:29;13.50;64.20
56729;DHT22;42612;52.232;7.560;2023-04-01T19:08:18;13.50;63.90
56729;DHT22;42612;52.232;7.560;2023-04-01T19:13:32;13.50;64.10
56729;DHT22;42612;52.232;7.560;2023-04-01T19:19:33;13.50;64.00
56729;DHT22;42612;52.232;7.560;2023-04-01T19:25:46;13.50;64.10
56729;DHT22;42612;52.232;7.560;2023-04-01T19:36:44;13.30;63.70
56729;DHT22;42612;52.232;7.560;2023-04-01T19:39:33;13.30;63.70
56729;DHT22;42612;52.232;7.560;2023-04-01T19:42:08;13.30;63.40
56729;DHT22;42612;52.232;7.560;2023-04-01T19:45:20;13.30;63.70
56729;DHT22;42612;52.232;7.560;2023-04-01T19:51:16;13.20;64.20
56729;DHT22;42612;52.232;7.560;2023-04-01T20:05:30;13.10;63.10
56729;DHT22;42612;52.232;7.560;2023-04-01T20:11:13;13.00;63.60
56729;DHT22;42612;52.232;7.560;2023-04-01T20:20:03;13.00;63.20
56729;DHT22;42612;52.232;7.560;2023-04-01T20:28:21;12.80;63.40
56729;DHT22;42612;52.232;7.560;2023-04-01T20:36:57;12.70;63.40
56729;DHT22;42612;52.232;7.560;2023-04-01T20:49:41;12.70;63.50
56729;DHT22;42612;52.232;7.560;2023-04-01T21:13:24;12.60;63.30
56729;DHT22;42612;52.232;7.560;2023-04-01T21:16:32;12.60;62.90
56729;DHT22;42612;52.232;7.560;2023-04-01T21:19:42;12.50;62.80
56729;DHT22;42612;52.232;7.560;2023-04-01T21:22:33;12.50;62.60
56729;DHT22;42612;52.232;7.560;2023-04-01T21:25:21;12.50;63.00
56729;DHT22;42612;52.232;7.560;2023-04-01T21:28:47;12.50;62.80
56729;DHT22;42612;52.232;7.560;2023-04-01T21:39:57;12.40;63.20
56729;DHT22;42612;52.232;7.560;2023-04-01T21:45:57;12.30;62.90
56729;DHT22;42612;52.232;7.560;2023-04-01T22:11:04;12.20;63.30
56729;DHT22;42612;52.232;7.560;2023-04-01T22:13:58;12.20;63.10
56729;DHT22;42612;52.232;7.560;2023-04-01T22:16:54;12.20;63.30
56729;DHT22;42612;52.232;7.560;2023-04-01T22:25:14;12.30;62.80
56729;DHT22;42612;52.232;7.560;2023-04-01T22:27:47;12.20;62.50
56729;DHT22;42612;52.232;7.560;2023-04-01T22:30:52;12.20;62.70
56729;DHT22;42612;52.232;7.560;2023-04-01T22:36:47;12.10;62.30
56729;DHT22;42612;52.232;7.560;2023-04-01T22:39:40;12.10;62.40
56729;DHT22;42612;52.232;7.560;2023-04-01T22:56:22;11.90;62.60
56729;DHT22;42612;52.232;7.560;2023-04-01T22:59:00;11.90;62.50
56729;DHT22;42612;52.232;7.560;2023-04-01T23:01:36;11.90;62.60
56729;DHT22;42612;52.232;7.560;2023-04-01T23:04:05;11.90;62.80
56729;DHT22;42612;52.232;7.560;2023-04-01T23:06:38;11.90;62.90
56729;DHT22;42612;52.232;7.560;2023-04-01T23:09:27;11.90;62.90
56729;DHT22;42612;52.232;7.560;2023-04-01T23:12:05;11.90;62.70
56729;DHT22;42612;52.232;7.560;2023-04-01T23:23:15;11.80;62.70
56729;DHT22;42612;52.232;7.560;2023-04-01T23:26:10;11.80;62.70
56729;DHT22;42612;52.232;7.560;2023-04-01T23:28:57;11.70;62.40
56729;DHT22;42612;52.232;7.560;2023-04-01T23:33:58;11.70;62.60
56729;DHT22;42612;52.232;7.560;2023-04-01T23:36:48;11.70;62.70
56729;DHT22;42612;52.232;7.560;2023-04-01T23:39:39;11.60;62.40
56729;DHT22;42612;52.232;7.560;2023-04-01T23:42:18;11.60;62.50
56729;DHT22;42612;52.232;7.560;2023-04-01T23:44:45;11.60;62.50
56729;DHT22;42612;52.232;7.560;2023-04-01T23:47:14;11.50;62.40
56729;DHT22;42612;52.232;7.560;2023-04-01T23:49:46;11.60;62.50
56729;DHT22;42612;52.232;7.560;2023-04-01T23:52:24;11.60;62.10
56729;DHT22;42612;52.232;7.560;2023-04-01T23:57:36;11.50;62.10
